Mackay, Australia
Current Conditions -  °F | °C
As of 10:00 PM on Tuesday 27 Jan 2015 (Local Time) from YBMK Reporting Station
Scattered Clouds Scattered Clouds  
Wind Chill: 84°   Ceiling: Unl
Heat Index: 94°   Visibility: 6mi
Dew Point: 77°   Wind: 7mph
Humidity: 79%   Direction: 80°E
Pressure: 29.62"   Gusts: NA
Location:  21.14°S, 149.19°E
Report Text: YBMK 271200Z AUTO 08006KT 9999 // SCT020 29/25 Q1003
Loading
Personal Weather Stations






























Interactive Weather Map New forecast layout! Learn more

10-Day Weather Forecast

Advertisements
Track Severe Weather on mobile